Time;durP1;ratioP1;P1;durP2;ratioP2;P2;SDS_P1;SDS_P2;PMS_P1;PMS_P2;Temp;Humidity;BMP_temperature;BMP_pressure;BME280_temperature;BME280_humidity;BME280_pressure;Samples;Min_cycle;Max_cycle;Signal;HPM_P1;HPM_P2
2022/10/01 00:01:53;;;;;;;14.90;9.50;;;11.10;99.90;;;;;;4947883;28;173186;-74
2022/10/01 00:04:19;;;;;;;15.95;8.98;;;11.10;99.90;;;;;;4996074;28;20419;-74
2022/10/01 00:06:45;;;;;;;15.52;10.05;;;11.00;99.90;;;;;;4968279;28;226824;-75
2022/10/01 00:09:11;;;;;;;13.45;9.57;;;11.00;99.90;;;;;;4985013;28;20081;-76
2022/10/01 00:11:38;;;;;;;17.38;10.73;;;11.00;99.90;;;;;;4962132;28;212941;-75
2022/10/01 00:14:04;;;;;;;16.33;10.55;;;11.00;99.90;;;;;;4990684;28;20504;-75
2022/10/01 00:16:30;;;;;;;18.70;10.70;;;11.00;99.90;;;;;;4948755;28;222320;-74
2022/10/01 00:18:59;;;;;;;16.45;11.02;;;11.00;99.90;;;;;;4979648;28;20080;-75
2022/10/01 00:21:28;;;;;;;17.38;11.40;;;11.00;99.90;;;;;;4953215;28;208007;-74
2022/10/01 00:24:03;;;;;;;18.05;11.80;;;10.90;99.90;;;;;;4994224;28;20710;-75
2022/10/01 00:26:32;;;;;;;14.45;11.25;;;10.90;99.90;;;;;;4950427;28;153972;-76
2022/10/01 00:29:04;;;;;;;15.82;11.18;;;10.90;99.90;;;;;;4991829;28;20065;-75
2022/10/01 00:31:30;;;;;;;18.95;12.20;;;10.90;99.90;;;;;;4950079;28;208919;-75
2022/10/01 00:33:59;;;;;;;16.60;11.68;;;11.00;99.90;;;;;;4994342;28;20054;-75
2022/10/01 00:36:26;;;;;;;15.77;11.68;;;10.90;99.90;;;;;;4950901;28;213657;-74
2022/10/01 00:38:52;;;;;;;17.85;12.13;;;10.90;99.90;;;;;;4979583;28;20419;-76
2022/10/01 00:41:18;;;;;;;16.75;12.50;;;11.00;99.90;;;;;;4957842;28;204502;-75
2022/10/01 00:43:48;;;;;;;16.88;12.00;;;10.90;99.90;;;;;;4997848;28;20065;-74
2022/10/01 00:46:20;;;;;;;17.80;13.13;;;10.90;99.90;;;;;;4945474;28;217832;-75
2022/10/01 00:49:13;;;;;;;16.73;12.57;;;10.80;99.90;;;;;;5001909;28;20065;-75
2022/10/01 00:51:47;;;;;;;19.30;12.85;;;10.80;99.90;;;;;;4930641;28;192943;-75
2022/10/01 00:54:20;;;;;;;17.98;13.20;;;10.80;99.90;;;;;;5003970;28;20059;-75
2022/10/01 00:56:46;;;;;;;18.85;13.38;;;10.80;99.90;;;;;;4959976;28;206883;-74
2022/10/01 00:59:15;;;;;;;17.17;12.50;;;10.80;99.90;;;;;;4991693;28;20042;-74
2022/10/01 01:01:41;;;;;;;15.65;11.63;;;10.80;99.90;;;;;;4956525;28;229190;-76
2022/10/01 01:04:16;;;;;;;20.58;12.63;;;10.80;99.90;;;;;;4991042;28;20046;-76
2022/10/01 01:06:52;;;;;;;16.05;12.30;;;10.80;99.90;;;;;;4955889;28;212192;-74
2022/10/01 01:09:20;;;;;;;16.85;13.10;;;10.80;99.90;;;;;;4980737;28;20070;-75
2022/10/01 01:12:09;;;;;;;20.73;13.80;;;10.80;99.90;;;;;;4928857;28;211067;-74
2022/10/01 01:15:00;;;;;;;19.45;13.07;;;10.80;99.90;;;;;;4985502;28;20054;-74
2022/10/01 01:17:39;;;;;;;15.88;12.27;;;10.80;99.90;;;;;;4937054;28;198692;-75
2022/10/01 01:20:15;;;;;;;16.27;11.77;;;10.70;99.90;;;;;;4988360;28;20057;-76
2022/10/01 01:22:50;;;;;;;17.00;13.05;;;10.80;99.90;;;;;;4927643;28;208606;-75
2022/10/01 01:25:27;;;;;;;17.48;13.63;;;10.80;99.90;;;;;;4937215;28;227841;-75
2022/10/01 01:28:21;;;;;;;17.48;11.95;;;10.70;99.90;;;;;;4989823;28;20094;-75
2022/10/01 01:30:50;;;;;;;18.73;13.43;;;10.70;99.90;;;;;;4949130;28;217727;-74
2022/10/01 01:33:20;;;;;;;21.00;13.57;;;10.70;99.90;;;;;;4992283;28;20499;-74
2022/10/01 01:36:10;;;;;;;17.23;11.90;;;10.70;99.90;;;;;;4945065;28;209716;-74
2022/10/01 01:38:43;;;;;;;17.88;12.18;;;10.70;99.90;;;;;;5008686;28;20054;-74
2022/10/01 01:41:11;;;;;;;14.55;10.38;;;10.70;99.90;;;;;;4969885;28;136671;-75
2022/10/01 01:43:42;;;;;;;18.38;12.73;;;10.70;99.90;;;;;;5014406;28;20386;-75
2022/10/01 01:46:12;;;;;;;17.33;12.80;;;10.70;99.90;;;;;;4962889;28;209524;-75
2022/10/01 01:48:40;;;;;;;19.77;12.88;;;10.70;99.90;;;;;;4986165;28;20054;-74
2022/10/01 01:51:30;;;;;;;18.33;12.73;;;10.70;99.90;;;;;;4966271;28;213043;-74
2022/10/01 01:53:56;;;;;;;18.35;12.43;;;10.70;99.90;;;;;;4971433;28;20094;-74
2022/10/01 01:56:22;;;;;;;18.48;13.27;;;10.70;99.90;;;;;;4946569;28;213645;-74
2022/10/01 01:58:50;;;;;;;17.63;12.65;;;10.70;99.90;;;;;;4984750;28;20526;-74
2022/10/01 02:01:36;;;;;;;16.35;11.98;;;10.70;99.90;;;;;;4940461;28;206389;-73
2022/10/01 02:04:24;;;;;;;18.33;12.93;;;10.70;99.90;;;;;;4987303;28;20050;-75
2022/10/01 02:07:14;;;;;;;16.48;11.43;;;10.70;99.90;;;;;;4967040;28;211540;-75
2022/10/01 02:10:23;;;;;;;19.02;12.25;;;10.70;99.90;;;;;;4998547;28;20054;-75
2022/10/01 02:13:23;;;;;;;16.27;10.93;;;10.70;99.90;;;;;;4966481;28;204888;-75
2022/10/01 02:16:11;;;;;;;14.82;10.30;;;10.70;99.90;;;;;;4958243;28;215840;-75
2022/10/01 02:19:11;;;;;;;14.88;10.85;;;10.70;99.90;;;;;;5012557;28;20057;-75
2022/10/01 02:21:39;;;;;;;14.70;10.35;;;10.70;99.90;;;;;;4990240;28;203753;-75
2022/10/01 02:24:14;;;;;;;16.77;11.05;;;10.70;99.90;;;;;;5007646;28;20071;-75
2022/10/01 02:26:43;;;;;;;18.83;11.02;;;10.70;99.90;;;;;;4971802;28;204922;-75
2022/10/01 02:29:13;;;;;;;15.73;10.23;;;10.70;99.90;;;;;;4997299;28;20058;-75
2022/10/01 02:31:40;;;;;;;15.68;10.50;;;10.70;99.90;;;;;;4988255;28;208490;-74
2022/10/01 02:34:07;;;;;;;16.25;10.57;;;10.70;99.90;;;;;;5010486;28;20054;-75
2022/10/01 02:36:36;;;;;;;15.98;10.43;;;10.70;99.90;;;;;;4968805;28;177264;-74
2022/10/01 02:39:04;;;;;;;14.02;9.43;;;10.70;99.90;;;;;;5007571;28;21957;-75
2022/10/01 02:41:34;;;;;;;15.75;10.63;;;10.70;99.90;;;;;;4966393;28;207570;-74
2022/10/01 02:44:07;;;;;;;15.57;10.30;;;10.70;99.90;;;;;;5012408;28;20050;-73
2022/10/01 02:46:45;;;;;;;15.07;9.90;;;10.70;99.90;;;;;;4964640;28;215612;-74
2022/10/01 02:49:12;;;;;;;13.30;8.85;;;10.70;99.90;;;;;;5016900;28;20053;-74
2022/10/01 02:51:47;;;;;;;16.55;8.75;;;10.70;99.90;;;;;;4966516;28;213023;-75
2022/10/01 02:54:33;;;;;;;11.60;8.13;;;10.70;99.90;;;;;;5008628;28;20065;-75
2022/10/01 02:59:44;;;;;;;11.60;7.65;;;10.80;99.90;;;;;;5006080;28;20426;-74
2022/10/01 03:02:10;;;;;;;12.80;8.27;;;10.80;99.90;;;;;;4973150;28;219694;-75
2022/10/01 03:04:37;;;;;;;14.43;8.40;;;10.80;99.90;;;;;;5006415;28;20050;-75
2022/10/01 03:07:03;;;;;;;12.57;7.55;;;10.80;99.90;;;;;;4960001;28;208793;-74
2022/10/01 03:09:30;;;;;;;10.98;7.38;;;10.80;99.90;;;;;;5000543;28;20431;-73
2022/10/01 03:11:58;;;;;;;11.93;6.35;;;10.80;99.90;;;;;;4973390;28;207501;-74
2022/10/01 03:14:24;;;;;;;12.25;7.43;;;10.90;99.90;;;;;;5011729;28;20049;-75
2022/10/01 03:16:51;;;;;;;10.82;6.72;;;10.90;99.90;;;;;;4985654;28;228016;-74
2022/10/01 03:19:17;;;;;;;10.32;6.78;;;10.90;99.90;;;;;;5007214;28;20176;-74
2022/10/01 03:21:43;;;;;;;11.35;6.30;;;10.90;99.90;;;;;;4990971;28;210167;-77
2022/10/01 03:24:09;;;;;;;10.35;5.93;;;11.00;99.90;;;;;;5005066;28;20526;-75
2022/10/01 03:26:35;;;;;;;9.75;6.10;;;10.90;99.90;;;;;;4979656;28;205155;-74
2022/10/01 03:29:03;;;;;;;10.10;5.90;;;10.90;99.90;;;;;;4992137;28;20054;-73
2022/10/01 03:31:29;;;;;;;10.57;6.18;;;11.00;99.90;;;;;;4984061;28;214937;-74
2022/10/01 03:33:59;;;;;;;10.23;6.10;;;10.90;99.90;;;;;;5013487;28;20057;-75
2022/10/01 03:36:28;;;;;;;10.63;5.97;;;10.90;99.90;;;;;;4966546;28;204578;-74
2022/10/01 03:38:55;;;;;;;9.30;5.35;;;10.90;99.90;;;;;;4990511;28;20046;-76
2022/10/01 03:41:21;;;;;;;10.10;5.40;;;11.00;99.90;;;;;;4974166;28;215123;-73
2022/10/01 03:43:47;;;;;;;8.80;4.82;;;11.00;99.90;;;;;;5010132;28;20057;-74
2022/10/01 03:46:13;;;;;;;9.48;4.60;;;10.90;99.90;;;;;;4958196;28;205181;-73
2022/10/01 03:48:39;;;;;;;8.85;4.47;;;11.00;99.90;;;;;;5006121;28;20065;-73
2022/10/01 03:51:06;;;;;;;9.65;4.07;;;11.00;99.90;;;;;;4971928;28;208343;-75
2022/10/01 03:53:32;;;;;;;8.43;4.03;;;11.00;99.90;;;;;;5015812;28;20057;-75
2022/10/01 03:55:59;;;;;;;9.55;4.63;;;10.90;99.90;;;;;;4980192;28;205784;-75
2022/10/01 03:58:25;;;;;;;8.23;4.15;;;11.00;99.90;;;;;;5003929;28;20049;-74
2022/10/01 04:00:55;;;;;;;7.88;3.90;;;11.00;99.90;;;;;;4964315;28;206224;-75
2022/10/01 04:03:21;;;;;;;7.85;3.60;;;11.00;99.90;;;;;;5023427;28;20033;-75
2022/10/01 04:05:48;;;;;;;9.23;3.80;;;11.00;99.90;;;;;;4957766;28;212920;-74
2022/10/01 04:08:14;;;;;;;8.35;3.80;;;11.00;99.90;;;;;;4999535;28;20041;-75
2022/10/01 04:10:41;;;;;;;8.38;3.55;;;11.10;99.90;;;;;;4973145;28;213104;-75
2022/10/01 04:13:08;;;;;;;10.48;4.30;;;11.00;99.90;;;;;;5003274;28;20058;-73
2022/10/01 04:15:34;;;;;;;8.07;3.88;;;11.10;99.90;;;;;;4985038;28;206319;-73
2022/10/01 04:18:04;;;;;;;8.73;3.60;;;11.10;99.90;;;;;;5002289;28;20049;-73
2022/10/01 04:20:32;;;;;;;8.52;3.78;;;11.10;99.90;;;;;;4980005;28;208572;-74
2022/10/01 04:22:59;;;;;;;8.80;3.83;;;11.00;99.90;;;;;;5000615;28;20058;-75
2022/10/01 04:25:26;;;;;;;9.00;3.70;;;11.00;99.90;;;;;;4972189;28;216401;-76
2022/10/01 04:27:58;;;;;;;8.00;3.85;;;11.10;99.90;;;;;;4997453;28;20065;-74
2022/10/01 04:30:29;;;;;;;8.23;3.75;;;11.10;99.90;;;;;;4945208;28;212002;-72
2022/10/01 04:32:55;;;;;;;;;;;11.10;99.90;;;;;;5016431;28;20050;-75
2022/10/01 04:35:21;;;;;;;8.75;3.70;;;11.10;99.90;;;;;;4969524;28;213333;-74
2022/10/01 04:37:54;;;;;;;7.88;3.60;;;11.10;99.90;;;;;;5015624;28;20050;-75
2022/10/01 04:40:20;;;;;;;9.70;3.70;;;11.10;99.90;;;;;;4966634;28;213140;-74
2022/10/01 04:42:46;;;;;;;8.00;3.35;;;11.10;99.90;;;;;;5022443;28;20042;-75
2022/10/01 04:45:12;;;;;;;8.13;3.88;;;11.10;99.90;;;;;;4982490;28;210253;-74
2022/10/01 04:47:47;;;;;;;8.18;3.85;;;11.10;99.90;;;;;;4991603;28;116287;-74
2022/10/01 04:50:14;;;;;;;8.73;3.90;;;11.10;99.90;;;;;;4998268;28;225699;-75
2022/10/01 04:52:40;;;;;;;7.63;3.63;;;11.20;99.90;;;;;;4983683;28;204688;-75
2022/10/01 04:55:07;;;;;;;7.55;3.50;;;11.20;99.90;;;;;;5004289;28;20066;-76
2022/10/01 04:57:35;;;;;;;8.20;3.97;;;11.20;99.90;;;;;;4951387;28;205604;-76
2022/10/01 05:00:03;;;;;;;9.02;3.92;;;11.30;99.90;;;;;;4998003;28;20495;-75
2022/10/01 05:02:31;;;;;;;8.23;3.97;;;11.30;99.90;;;;;;4962239;28;212603;-76
2022/10/01 05:04:57;;;;;;;8.05;4.00;;;11.30;99.90;;;;;;4982317;28;20077;-75
2022/10/01 05:07:23;;;;;;;8.75;4.22;;;11.30;99.90;;;;;;4976323;28;218580;-74
2022/10/01 05:09:49;;;;;;;9.40;4.40;;;11.30;99.90;;;;;;4981148;28;20058;-75
2022/10/01 05:12:16;;;;;;;8.98;4.63;;;11.40;99.90;;;;;;4950154;28;212298;-74
2022/10/01 05:14:43;;;;;;;11.07;4.68;;;11.30;99.90;;;;;;4989218;28;20504;-74
2022/10/01 05:17:09;;;;;;;8.82;4.60;;;11.40;99.90;;;;;;4964670;28;208892;-76
2022/10/01 05:19:35;;;;;;;8.25;4.53;;;11.40;99.90;;;;;;5002760;28;20072;-75
2022/10/01 05:22:01;;;;;;;8.82;5.18;;;11.40;99.90;;;;;;4966782;28;209596;-74
2022/10/01 05:24:28;;;;;;;12.25;5.20;;;11.40;99.90;;;;;;5003767;28;20040;-72
2022/10/01 05:26:54;;;;;;;9.48;5.30;;;11.50;99.90;;;;;;4975164;28;211956;-75
2022/10/01 05:29:20;;;;;;;9.68;5.45;;;11.50;99.90;;;;;;4988750;28;20396;-75
2022/10/01 05:31:46;;;;;;;10.80;5.43;;;11.50;99.90;;;;;;4974949;28;210333;-74
2022/10/01 05:34:13;;;;;;;9.70;5.45;;;11.50;99.90;;;;;;5005948;28;20053;-75
2022/10/01 05:36:39;;;;;;;9.43;5.78;;;11.50;99.90;;;;;;4957091;28;213137;-74
2022/10/01 05:39:05;;;;;;;10.65;5.60;;;11.50;99.90;;;;;;5022286;28;20146;-75
2022/10/01 05:41:31;;;;;;;11.07;5.90;;;11.50;99.90;;;;;;4956601;28;205710;-76
2022/10/01 05:43:57;;;;;;;13.13;6.22;;;11.60;99.90;;;;;;5000613;28;20053;-75
2022/10/01 05:46:23;;;;;;;10.95;6.53;;;11.60;99.90;;;;;;4962043;28;209733;-75
2022/10/01 05:48:50;;;;;;;10.85;6.80;;;11.60;99.90;;;;;;4984440;28;20042;-76
2022/10/01 05:51:17;;;;;;;12.57;7.00;;;11.70;99.90;;;;;;4981468;28;74871;-76
2022/10/01 05:53:45;;;;;;;11.60;6.47;;;11.70;99.90;;;;;;5011289;28;20054;-75
2022/10/01 05:56:11;;;;;;;12.05;6.72;;;11.70;99.90;;;;;;4971246;28;207342;-71
2022/10/01 05:58:37;;;;;;;10.55;6.82;;;11.80;99.90;;;;;;5001177;28;20058;-73
2022/10/01 06:01:03;;;;;;;10.82;6.80;;;11.80;99.90;;;;;;4977479;28;210858;-76
2022/10/01 06:03:30;;;;;;;11.40;6.63;;;11.80;99.90;;;;;;5006835;28;20521;-75
2022/10/01 06:05:56;;;;;;;12.15;6.85;;;11.80;99.90;;;;;;4960540;28;210625;-74
2022/10/01 06:08:22;;;;;;;12.98;6.90;;;11.90;99.90;;;;;;5008269;28;20057;-74
2022/10/01 06:10:48;;;;;;;13.05;6.75;;;11.90;99.90;;;;;;4957505;28;215417;-75
2022/10/01 06:13:16;;;;;;;13.30;7.20;;;11.90;99.90;;;;;;5002315;28;20046;-75
2022/10/01 06:15:44;;;;;;;12.02;6.80;;;11.90;99.90;;;;;;4958088;28;205530;-73
2022/10/01 06:18:12;;;;;;;12.20;7.60;;;12.00;99.90;;;;;;5002504;28;20046;-73
2022/10/01 06:20:39;;;;;;;11.32;8.00;;;12.00;99.90;;;;;;4967703;28;206518;-74
2022/10/01 06:23:11;;;;;;;13.27;8.45;;;12.00;99.90;;;;;;5013232;28;20050;-76
2022/10/01 06:25:37;;;;;;;;;;;12.10;99.90;;;;;;4962198;28;210347;-73
2022/10/01 06:28:05;;;;;;;15.68;9.27;;;12.10;99.90;;;;;;5017153;28;19917;-74
2022/10/01 06:30:35;;;;;;;15.25;9.65;;;12.10;99.90;;;;;;4959516;28;212922;-75
2022/10/01 06:33:10;;;;;;;16.08;10.10;;;12.20;99.90;;;;;;5030511;28;20076;-75
2022/10/01 06:35:41;;;;;;;17.88;10.82;;;12.20;99.90;;;;;;4963182;28;206661;-75
2022/10/01 06:38:08;;;;;;;;;;;12.30;99.90;;;;;;5004693;28;20062;-74
2022/10/01 06:40:35;;;;;;;17.23;11.40;;;12.30;99.90;;;;;;4957876;28;213179;-76
2022/10/01 06:43:02;;;;;;;17.75;11.00;;;12.40;99.90;;;;;;4998167;28;20422;-76
2022/10/01 06:45:29;;;;;;;21.20;11.15;;;12.40;99.90;;;;;;4970957;28;240742;-75
2022/10/01 06:48:02;;;;;;;14.52;10.55;;;12.40;99.90;;;;;;5019515;28;20054;-74
2022/10/01 06:50:30;;;;;;;20.95;10.40;;;12.40;99.90;;;;;;4962673;28;206301;-72
2022/10/01 06:52:56;;;;;;;15.43;9.55;;;12.40;99.90;;;;;;5010167;28;20534;-75
2022/10/01 06:55:31;;;;;;;18.07;10.27;;;12.50;99.90;;;;;;4965518;28;206229;-77
2022/10/01 06:57:59;;;;;;;17.60;9.80;;;12.50;99.90;;;;;;5012106;28;20057;-77
2022/10/01 07:00:27;;;;;;;18.30;9.87;;;12.50;99.90;;;;;;4962783;28;215951;-76
2022/10/01 07:02:54;;;;;;;17.17;9.23;;;12.50;99.90;;;;;;5004017;28;20050;-75
2022/10/01 07:05:22;;;;;;;18.17;9.53;;;12.50;99.90;;;;;;4965531;28;213293;-76
2022/10/01 07:07:48;;;;;;;17.58;9.23;;;12.50;99.90;;;;;;5001737;28;20045;-76
2022/10/01 07:10:19;;;;;;;17.00;9.10;;;12.50;99.90;;;;;;4970922;28;225484;-74
2022/10/01 07:12:49;;;;;;;;;;;12.60;99.90;;;;;;4989232;28;215010;-74
2022/10/01 07:15:17;;;;;;;17.75;9.18;;;12.50;99.90;;;;;;4967169;28;209879;-74
2022/10/01 07:17:45;;;;;;;15.25;8.40;;;12.60;99.90;;;;;;4997635;28;20060;-75
2022/10/01 07:20:13;;;;;;;14.32;6.95;;;12.60;99.90;;;;;;4987249;28;214239;-75
2022/10/01 07:22:40;;;;;;;16.67;7.22;;;12.60;99.90;;;;;;4986814;28;213259;-73
2022/10/01 07:25:06;;;;;;;16.58;7.00;;;12.60;99.90;;;;;;4994156;28;20050;-76
2022/10/01 07:27:33;;;;;;;18.00;7.43;;;12.70;99.90;;;;;;4927131;28;244700;-75
2022/10/01 07:29:59;;;;;;;14.23;7.32;;;12.70;99.90;;;;;;4979692;28;20043;-75
2022/10/01 07:32:25;;;;;;;15.73;7.45;;;12.70;99.90;;;;;;4942847;28;211204;-76
2022/10/01 07:34:51;;;;;;;14.07;6.88;;;12.80;99.90;;;;;;4980159;28;20504;-75
2022/10/01 07:37:17;;;;;;;14.40;6.85;;;12.90;99.90;;;;;;4950383;28;208666;-75
2022/10/01 07:39:43;;;;;;;14.55;6.70;;;12.90;99.90;;;;;;4998515;28;20055;-75
2022/10/01 07:42:10;;;;;;;16.90;6.53;;;12.90;99.90;;;;;;4932918;28;205707;-73
2022/10/01 07:44:36;;;;;;;13.90;5.80;;;12.90;99.90;;;;;;4968511;28;20054;-76
2022/10/01 07:47:02;;;;;;;20.35;5.57;;;13.00;99.90;;;;;;4946528;28;211380;-76
2022/10/01 07:49:29;;;;;;;15.52;5.50;;;12.90;99.90;;;;;;4993820;28;20053;-74
2022/10/01 07:51:57;;;;;;;15.50;5.40;;;12.90;99.90;;;;;;4945657;28;217135;-75
2022/10/01 07:54:24;;;;;;;13.75;4.82;;;12.90;99.90;;;;;;4980575;28;20061;-75
2022/10/01 07:56:54;;;;;;;15.48;5.05;;;12.90;99.90;;;;;;4986480;28;208065;-76
2022/10/01 07:59:22;;;;;;;16.73;5.53;;;12.90;99.90;;;;;;5001221;28;20058;-76
2022/10/01 08:01:51;;;;;;;17.10;5.05;;;13.00;99.90;;;;;;4969935;28;213205;-76
2022/10/01 08:07:03;;;;;;;18.83;5.60;;;13.20;99.90;;;;;;4941981;28;223916;-76
2022/10/01 08:09:29;;;;;;;19.10;5.65;;;13.20;99.90;;;;;;4989423;28;20030;-75
2022/10/01 08:11:56;;;;;;;17.52;6.18;;;13.30;99.90;;;;;;4955498;28;206214;-75
2022/10/01 08:14:22;;;;;;;18.27;5.72;;;13.30;99.90;;;;;;4979753;28;20434;-76
2022/10/01 08:16:48;;;;;;;18.25;5.45;;;13.40;99.90;;;;;;4954819;28;210676;-72
2022/10/01 08:19:14;;;;;;;17.73;5.30;;;13.50;99.90;;;;;;4990389;28;20050;-71
2022/10/01 08:21:41;;;;;;;14.20;4.57;;;13.60;99.90;;;;;;4947104;28;216352;-73
2022/10/01 08:24:08;;;;;;;19.65;4.60;;;13.70;99.90;;;;;;4990196;28;20050;-72
2022/10/01 08:26:34;;;;;;;18.52;4.75;;;13.80;99.90;;;;;;4972167;28;224720;-72
2022/10/01 08:29:00;;;;;;;19.30;5.20;;;13.90;99.90;;;;;;5004784;28;20070;-73
2022/10/01 08:31:26;;;;;;;18.25;4.30;;;14.00;99.90;;;;;;4955662;28;209760;-72
2022/10/01 08:33:52;;;;;;;18.92;4.82;;;14.10;99.90;;;;;;4994155;28;20645;-71
2022/10/01 08:36:19;;;;;;;20.90;4.05;;;14.10;99.90;;;;;;4974821;28;206325;-72
2022/10/01 08:38:46;;;;;;;22.55;4.15;;;14.20;99.90;;;;;;4998553;28;20058;-72
2022/10/01 08:41:24;;;;;;;16.23;3.33;;;14.30;99.90;;;;;;4956973;28;231470;-72
2022/10/01 08:43:51;;;;;;;23.17;4.22;;;14.30;99.90;;;;;;4991334;28;20055;-72
2022/10/01 08:46:21;;;;;;;16.67;3.50;;;14.50;99.90;;;;;;4969063;28;224296;-71
2022/10/01 08:49:05;;;;;;;15.13;3.35;;;14.60;99.90;;;;;;5002290;28;20054;-72
2022/10/01 08:51:45;;;;;;;15.00;3.47;;;14.70;99.90;;;;;;4967804;28;209755;-73
2022/10/01 08:54:28;;;;;;;18.30;3.57;;;14.80;99.90;;;;;;4999050;28;20420;-73
2022/10/01 08:56:57;;;;;;;17.83;2.70;;;14.90;99.90;;;;;;4974433;28;207093;-73
2022/10/01 08:59:41;;;;;;;20.90;3.15;;;15.00;99.90;;;;;;4990643;28;20538;-73
2022/10/01 09:02:17;;;;;;;20.17;3.25;;;15.10;99.90;;;;;;4952425;28;209604;-73
2022/10/01 09:04:44;;;;;;;16.45;2.95;;;15.20;99.90;;;;;;5015685;28;20069;-74
2022/10/01 09:07:19;;;;;;;18.63;2.95;;;15.30;99.90;;;;;;4949943;28;183516;-73
2022/10/01 09:09:59;;;;;;;17.60;2.70;;;15.50;99.90;;;;;;4988399;28;20126;-72
2022/10/01 09:12:45;;;;;;;15.48;2.58;;;15.90;99.90;;;;;;4958701;28;208270;-72
2022/10/01 09:15:23;;;;;;;16.88;3.03;;;16.40;99.90;;;;;;4971609;28;240021;-71
2022/10/01 09:17:58;;;;;;;16.33;2.70;;;16.50;99.90;;;;;;4959064;28;207407;-72
2022/10/01 09:20:56;;;;;;;13.90;2.50;;;17.20;99.90;;;;;;4917403;28;198220;-73
2022/10/01 09:23:29;;;;;;;17.75;2.65;;;17.00;99.90;;;;;;4891768;29;20052;-73
2022/10/01 09:25:58;;;;;;;15.13;2.63;;;17.10;99.90;;;;;;4859425;29;210140;-73
2022/10/01 09:28:31;;;;;;;15.77;2.55;;;17.30;99.90;;;;;;4896103;29;20057;-72
2022/10/01 09:31:15;;;;;;;16.38;2.97;;;17.40;99.90;;;;;;4868707;29;136961;-73
2022/10/01 09:33:49;;;;;;;14.48;2.50;;;17.30;99.90;;;;;;4907965;29;20051;-72
2022/10/01 09:36:29;;;;;;;14.77;2.17;;;17.60;99.90;;;;;;4838085;29;206103;-73
2022/10/01 09:39:03;;;;;;;15.38;2.13;;;17.80;99.90;;;;;;4901231;29;20052;-72
2022/10/01 09:41:30;;;;;;;16.73;2.47;;;18.20;99.90;;;;;;4845392;29;225001;-72
2022/10/01 09:43:56;;;;;;;15.07;2.08;;;17.90;99.90;;;;;;4890733;29;20458;-73
2022/10/01 09:46:25;;;;;;;12.82;2.15;;;18.30;99.90;;;;;;4862432;29;212814;-71
2022/10/01 09:49:33;;;;;;;12.60;2.10;;;18.00;99.90;;;;;;4904209;29;20071;-72
2022/10/01 09:52:09;;;;;;;14.35;1.98;;;17.40;99.90;;;;;;4859921;29;206989;-74
2022/10/01 09:54:54;;;;;;;15.27;2.33;;;17.00;99.90;;;;;;4913728;29;20056;-73
2022/10/01 09:57:26;;;;;;;11.40;1.95;;;16.80;99.90;;;;;;4892080;28;202120;-73
2022/10/01 10:00:09;;;;;;;15.63;1.92;;;16.60;99.90;;;;;;4938729;28;20920;-74
2022/10/01 10:02:40;;;;;;;15.68;2.10;;;16.40;99.90;;;;;;4964171;28;219254;-75
2022/10/01 10:05:11;;;;;;;15.95;2.33;;;16.20;99.90;;;;;;5009111;28;20066;-73
2022/10/01 10:07:41;;;;;;;11.23;2.05;;;15.80;99.90;;;;;;4972204;28;208855;-74
2022/10/01 10:10:18;;;;;;;11.35;2.08;;;15.70;99.90;;;;;;5020005;28;20061;-74
2022/10/01 10:12:47;;;;;;;12.00;1.80;;;15.60;99.90;;;;;;4962840;28;206787;-75
2022/10/01 10:15:19;;;;;;;11.50;1.58;;;15.30;99.90;;;;;;5003410;28;206224;-74
2022/10/01 10:17:50;;;;;;;11.05;1.73;;;15.10;99.90;;;;;;4995470;28;220245;-76
2022/10/01 10:20:41;;;;;;;11.88;1.80;;;14.90;99.90;;;;;;4965822;28;216368;-75
2022/10/01 10:23:19;;;;;;;10.82;2.00;;;14.60;99.90;;;;;;4947511;28;20523;-73
2022/10/01 10:26:06;;;;;;;16.38;2.22;;;14.40;99.90;;;;;;4916325;28;204957;-72
2022/10/01 10:28:40;;;;;;;12.57;1.92;;;14.30;99.90;;;;;;4953155;28;20047;-71
2022/10/01 10:31:24;;;;;;;12.27;1.85;;;14.10;99.90;;;;;;4913520;28;209577;-70
2022/10/01 10:34:13;;;;;;;15.23;2.58;;;14.00;99.90;;;;;;4953452;28;20523;-72
2022/10/01 10:36:41;;;;;;;11.82;1.85;;;13.80;99.90;;;;;;4920906;28;202627;-72
2022/10/01 10:39:28;;;;;;;12.82;1.80;;;13.70;99.90;;;;;;4959278;28;20055;-70
2022/10/01 10:41:55;;;;;;;12.65;1.70;;;13.50;99.90;;;;;;4928975;28;206532;-70
2022/10/01 10:44:25;;;;;;;12.55;1.80;;;13.40;99.90;;;;;;4927729;28;20051;-72
2022/10/01 10:46:52;;;;;;;13.18;1.83;;;13.30;99.90;;;;;;4918307;28;198150;-71
2022/10/01 10:49:25;;;;;;;14.40;1.60;;;13.40;99.90;;;;;;4926344;28;20144;-71
2022/10/01 10:51:53;;;;;;;10.23;1.55;;;13.30;99.90;;;;;;4927309;28;204260;-71
2022/10/01 10:54:28;;;;;;;8.93;1.40;;;13.30;99.90;;;;;;4945871;28;20058;-73
2022/10/01 10:57:04;;;;;;;12.75;1.67;;;13.20;99.90;;;;;;4925161;28;210603;-73
2022/10/01 10:59:32;;;;;;;12.48;2.03;;;13.20;99.90;;;;;;4937689;28;20065;-73
2022/10/01 11:02:03;;;;;;;11.60;1.40;;;13.30;99.90;;;;;;4954471;28;222729;-74
2022/10/01 11:04:41;;;;;;;8.75;1.48;;;13.30;99.90;;;;;;4994752;28;20042;-72
2022/10/01 11:07:09;;;;;;;9.95;1.60;;;13.30;99.90;;;;;;4963439;28;205059;-74
2022/10/01 11:10:04;;;;;;;11.35;1.67;;;13.40;99.90;;;;;;4994302;28;20058;-74
2022/10/01 11:12:30;;;;;;;13.38;1.80;;;13.50;99.90;;;;;;4953199;28;152500;-74
2022/10/01 11:15:28;;;;;;;11.18;1.55;;;13.80;99.90;;;;;;4992697;28;20069;-74
2022/10/01 11:18:20;;;;;;;14.68;1.83;;;13.80;99.90;;;;;;4927953;28;205279;-72
2022/10/01 11:20:59;;;;;;;13.15;1.77;;;14.20;99.90;;;;;;4848920;29;208943;-74
2022/10/01 11:23:32;;;;;;;11.30;1.60;;;14.40;99.90;;;;;;4894932;29;20053;-73
2022/10/01 11:26:04;;;;;;;12.63;1.67;;;14.70;99.90;;;;;;4841974;29;204962;-73
2022/10/01 11:28:52;;;;;;;11.10;1.60;;;15.10;99.90;;;;;;4878776;29;20426;-72
2022/10/01 11:31:41;;;;;;;13.60;1.80;;;15.50;99.90;;;;;;4856606;29;209111;-74
2022/10/01 11:34:17;;;;;;;11.85;1.75;;;15.60;99.90;;;;;;4894913;29;20053;-74
2022/10/01 11:37:02;;;;;;;15.93;2.17;;;16.10;99.90;;;;;;4857946;29;134742;-74
2022/10/01 11:39:33;;;;;;;13.73;1.80;;;16.90;99.90;;;;;;4883191;29;20060;-73
2022/10/01 11:42:08;;;;;;;10.38;1.52;;;17.30;99.90;;;;;;4844662;29;211209;-74
2022/10/01 11:44:47;;;;;;;13.20;1.90;;;17.30;99.90;;;;;;4890275;29;20057;-72
2022/10/01 11:47:23;;;;;;;33.85;4.13;;;17.40;99.90;;;;;;4835324;29;206336;-73
2022/10/01 11:49:58;;;;;;;16.90;2.30;;;17.50;99.90;;;;;;4873311;29;20076;-73
2022/10/01 11:52:57;;;;;;;15.70;2.25;;;17.40;99.90;;;;;;4851499;29;209063;-74
2022/10/01 11:58:51;;;;;;;24.88;2.97;;;18.70;99.90;;;;;;4975484;28;20050;-74
2022/10/01 12:01:30;;;;;;;15.00;2.40;;;18.60;99.90;;;;;;4974333;28;134114;-75
2022/10/01 12:04:12;;;;;;;15.70;2.67;;;18.10;99.90;;;;;;5011778;28;20311;-73
2022/10/01 12:06:49;;;;;;;17.85;2.53;;;17.40;99.90;;;;;;4973690;28;206561;-76
2022/10/01 12:09:35;;;;;;;16.75;2.80;;;17.10;99.90;;;;;;5007202;28;20054;-73
2022/10/01 12:12:09;;;;;;;14.88;2.55;;;16.70;99.90;;;;;;4977082;28;205450;-75
2022/10/01 12:15:00;;;;;;;21.13;2.45;;;16.50;99.90;;;;;;5006513;28;20526;-73
2022/10/01 12:17:43;;;;;;;17.90;3.10;;;16.40;99.90;;;;;;4971025;28;227131;-73
2022/10/01 12:20:26;;;;;;;13.23;2.05;;;16.20;99.90;;;;;;5007855;28;20415;-73
2022/10/01 12:22:53;;;;;;;20.48;3.20;;;15.80;99.90;;;;;;4943820;28;205568;-75
2022/10/01 12:25:25;;;;;;;80.97;8.63;;;15.60;99.90;;;;;;4937853;28;208772;-73
2022/10/01 12:28:19;;;;;;;113.38;11.98;;;15.50;99.90;;;;;;4993856;28;20047;-73
2022/10/01 12:30:57;;;;;;;47.85;6.05;;;16.40;99.90;;;;;;4947987;28;202774;-73
2022/10/01 12:33:52;;;;;;;71.28;8.13;;;16.70;99.90;;;;;;5004381;28;20056;-73
2022/10/01 12:37:03;;;;;;;44.92;5.80;;;16.60;99.90;;;;;;4955949;28;208380;-74
2022/10/01 12:39:43;;;;;;;15.88;2.20;;;17.20;99.90;;;;;;4983828;28;20061;-74
2022/10/01 12:42:11;;;;;;;15.85;2.85;;;18.20;99.90;;;;;;4951720;28;210919;-73
2022/10/01 12:44:59;;;;;;;15.35;2.25;;;18.50;99.90;;;;;;4986350;28;20061;-73
2022/10/01 12:47:44;;;;;;;12.70;2.38;;;19.10;99.90;;;;;;4951699;28;220151;-74
2022/10/01 12:50:37;;;;;;;21.27;2.80;;;19.60;99.90;;;;;;4974213;28;211409;-73
2022/10/01 12:53:28;;;;;;;14.93;2.45;;;19.70;99.90;;;;;;4963130;28;209717;-72
2022/10/01 12:56:03;;;;;;;15.60;2.53;;;18.80;99.90;;;;;;4971385;28;39208;-74
2022/10/01 12:59:05;;;;;;;16.30;2.30;;;18.10;99.90;;;;;;4988370;28;20050;-73
2022/10/01 13:01:43;;;;;;;11.55;1.63;;;17.60;99.90;;;;;;4954932;28;220295;-69
2022/10/01 13:04:16;;;;;;;17.77;2.22;;;17.20;99.90;;;;;;4986638;28;20070;-73
2022/10/01 13:06:50;;;;;;;13.73;2.20;;;16.80;99.90;;;;;;4965644;28;205678;-74
2022/10/01 13:09:25;;;;;;;13.27;2.28;;;16.40;99.90;;;;;;5010161;28;20065;-76